sensor_id;sensor_type;location;lat;lon;timestamp;P1;durP1;ratioP1;P2;durP2;ratioP2
12072;SDS011;6098;49.004;8.372;2023-03-01T00:04:32;18.56;;;9.61;;
12072;SDS011;6098;49.004;8.372;2023-03-01T00:19:21;16.26;;;9.08;;
12072;SDS011;6098;49.004;8.372;2023-03-01T00:34:12;18.18;;;9.00;;
12072;SDS011;6098;49.004;8.372;2023-03-01T00:49:01;21.74;;;9.83;;
12072;SDS011;6098;49.004;8.372;2023-03-01T01:03:58;16.42;;;9.04;;
12072;SDS011;6098;49.004;8.372;2023-03-01T01:18:53;17.09;;;9.21;;
12072;SDS011;6098;49.004;8.372;2023-03-01T01:33:44;14.68;;;8.18;;
12072;SDS011;6098;49.004;8.372;2023-03-01T01:48:40;17.91;;;9.41;;
12072;SDS011;6098;49.004;8.372;2023-03-01T02:03:37;22.31;;;9.91;;
12072;SDS011;6098;49.004;8.372;2023-03-01T02:18:28;19.88;;;11.33;;
12072;SDS011;6098;49.004;8.372;2023-03-01T02:33:19;16.33;;;9.77;;
12072;SDS011;6098;49.004;8.372;2023-03-01T02:48:09;19.50;;;10.07;;
12072;SDS011;6098;49.004;8.372;2023-03-01T03:02:59;15.92;;;9.56;;
12072;SDS011;6098;49.004;8.372;2023-03-01T03:17:49;19.54;;;10.10;;
12072;SDS011;6098;49.004;8.372;2023-03-01T03:32:40;20.00;;;10.88;;
12072;SDS011;6098;49.004;8.372;2023-03-01T03:47:29;21.20;;;10.69;;
12072;SDS011;6098;49.004;8.372;2023-03-01T04:02:19;19.39;;;10.51;;
12072;SDS011;6098;49.004;8.372;2023-03-01T04:17:08;17.28;;;10.01;;
12072;SDS011;6098;49.004;8.372;2023-03-01T04:31:58;20.88;;;11.60;;
12072;SDS011;6098;49.004;8.372;2023-03-01T04:46:48;19.88;;;11.18;;
12072;SDS011;6098;49.004;8.372;2023-03-01T05:01:37;21.82;;;11.19;;
12072;SDS011;6098;49.004;8.372;2023-03-01T05:16:26;21.38;;;10.66;;
12072;SDS011;6098;49.004;8.372;2023-03-01T05:31:15;23.30;;;10.84;;
12072;SDS011;6098;49.004;8.372;2023-03-01T05:46:06;23.51;;;11.54;;
12072;SDS011;6098;49.004;8.372;2023-03-01T06:00:55;23.71;;;11.41;;
12072;SDS011;6098;49.004;8.372;2023-03-01T06:15:45;25.36;;;11.91;;
12072;SDS011;6098;49.004;8.372;2023-03-01T06:30:35;25.23;;;12.14;;
12072;SDS011;6098;49.004;8.372;2023-03-01T06:45:24;22.10;;;10.94;;
12072;SDS011;6098;49.004;8.372;2023-03-01T07:00:15;22.97;;;12.10;;
12072;SDS011;6098;49.004;8.372;2023-03-01T07:15:06;27.09;;;12.77;;
12072;SDS011;6098;49.004;8.372;2023-03-01T07:29:57;25.22;;;12.34;;
12072;SDS011;6098;49.004;8.372;2023-03-01T07:44:48;26.58;;;11.82;;
12072;SDS011;6098;49.004;8.372;2023-03-01T07:59:39;24.94;;;12.46;;
12072;SDS011;6098;49.004;8.372;2023-03-01T08:14:29;25.13;;;12.43;;
12072;SDS011;6098;49.004;8.372;2023-03-01T08:29:21;26.86;;;12.94;;
12072;SDS011;6098;49.004;8.372;2023-03-01T08:44:14;24.78;;;12.99;;
12072;SDS011;6098;49.004;8.372;2023-03-01T08:59:05;24.56;;;12.96;;
12072;SDS011;6098;49.004;8.372;2023-03-01T09:13:55;27.28;;;13.50;;
12072;SDS011;6098;49.004;8.372;2023-03-01T09:28:45;25.27;;;13.40;;
12072;SDS011;6098;49.004;8.372;2023-03-01T09:43:40;25.38;;;13.84;;
12072;SDS011;6098;49.004;8.372;2023-03-01T09:58:54;21.57;;;12.46;;
12072;SDS011;6098;49.004;8.372;2023-03-01T10:13:50;25.48;;;14.00;;
12072;SDS011;6098;49.004;8.372;2023-03-01T10:29:05;20.34;;;12.68;;
12072;SDS011;6098;49.004;8.372;2023-03-01T10:43:59;24.24;;;14.56;;
12072;SDS011;6098;49.004;8.372;2023-03-01T10:59:03;21.02;;;12.59;;
12072;SDS011;6098;49.004;8.372;2023-03-01T11:29:00;22.62;;;12.98;;
12072;SDS011;6098;49.004;8.372;2023-03-01T11:59:05;20.59;;;12.72;;
12072;SDS011;6098;49.004;8.372;2023-03-01T12:29:39;23.01;;;14.13;;
12072;SDS011;6098;49.004;8.372;2023-03-01T12:44:42;20.69;;;13.19;;
12072;SDS011;6098;49.004;8.372;2023-03-01T12:59:35;20.72;;;12.74;;
12072;SDS011;6098;49.004;8.372;2023-03-01T13:29:26;21.57;;;13.00;;
12072;SDS011;6098;49.004;8.372;2023-03-01T13:59:34;19.02;;;12.47;;
12072;SDS011;6098;49.004;8.372;2023-03-01T14:14:36;18.54;;;12.34;;
12072;SDS011;6098;49.004;8.372;2023-03-01T14:29:36;16.29;;;11.58;;
12072;SDS011;6098;49.004;8.372;2023-03-01T14:44:24;21.61;;;12.71;;
12072;SDS011;6098;49.004;8.372;2023-03-01T14:59:14;18.76;;;12.89;;
12072;SDS011;6098;49.004;8.372;2023-03-01T15:14:24;19.22;;;12.18;;
12072;SDS011;6098;49.004;8.372;2023-03-01T15:28:58;18.96;;;12.06;;
12072;SDS011;6098;49.004;8.372;2023-03-01T15:43:46;18.80;;;11.99;;
12072;SDS011;6098;49.004;8.372;2023-03-01T15:58:36;18.74;;;11.93;;
12072;SDS011;6098;49.004;8.372;2023-03-01T16:13:27;16.03;;;11.61;;
12072;SDS011;6098;49.004;8.372;2023-03-01T16:28:16;16.29;;;11.87;;
12072;SDS011;6098;49.004;8.372;2023-03-01T16:43:06;16.29;;;10.91;;
12072;SDS011;6098;49.004;8.372;2023-03-01T16:57:55;18.11;;;11.32;;
12072;SDS011;6098;49.004;8.372;2023-03-01T17:12:47;18.29;;;11.76;;
12072;SDS011;6098;49.004;8.372;2023-03-01T17:27:36;17.73;;;11.22;;
12072;SDS011;6098;49.004;8.372;2023-03-01T17:42:29;15.89;;;10.64;;
12072;SDS011;6098;49.004;8.372;2023-03-01T17:57:19;16.52;;;10.64;;
12072;SDS011;6098;49.004;8.372;2023-03-01T18:12:12;18.39;;;11.19;;
12072;SDS011;6098;49.004;8.372;2023-03-01T18:27:05;17.28;;;11.04;;
12072;SDS011;6098;49.004;8.372;2023-03-01T18:41:55;18.17;;;11.34;;
12072;SDS011;6098;49.004;8.372;2023-03-01T18:56:46;17.70;;;11.09;;
12072;SDS011;6098;49.004;8.372;2023-03-01T19:11:36;16.48;;;10.37;;
12072;SDS011;6098;49.004;8.372;2023-03-01T19:26:26;18.28;;;10.62;;
12072;SDS011;6098;49.004;8.372;2023-03-01T19:41:16;15.28;;;10.13;;
12072;SDS011;6098;49.004;8.372;2023-03-01T19:56:06;15.43;;;9.77;;
12072;SDS011;6098;49.004;8.372;2023-03-01T20:11:00;15.88;;;9.58;;
12072;SDS011;6098;49.004;8.372;2023-03-01T20:26:00;15.18;;;9.19;;
12072;SDS011;6098;49.004;8.372;2023-03-01T20:40:43;15.72;;;9.79;;
12072;SDS011;6098;49.004;8.372;2023-03-01T20:55:41;15.70;;;9.64;;
12072;SDS011;6098;49.004;8.372;2023-03-01T21:10:32;18.61;;;10.83;;
12072;SDS011;6098;49.004;8.372;2023-03-01T21:25:19;17.43;;;10.20;;
12072;SDS011;6098;49.004;8.372;2023-03-01T21:40:10;18.11;;;11.21;;
12072;SDS011;6098;49.004;8.372;2023-03-01T21:55:00;25.19;;;12.83;;
12072;SDS011;6098;49.004;8.372;2023-03-01T22:09:50;20.21;;;11.19;;
12072;SDS011;6098;49.004;8.372;2023-03-01T22:24:40;19.43;;;12.01;;
12072;SDS011;6098;49.004;8.372;2023-03-01T22:39:30;24.74;;;13.81;;
12072;SDS011;6098;49.004;8.372;2023-03-01T22:54:21;22.07;;;12.63;;
12072;SDS011;6098;49.004;8.372;2023-03-01T23:09:10;25.22;;;13.86;;
12072;SDS011;6098;49.004;8.372;2023-03-01T23:24:08;23.69;;;12.93;;
12072;SDS011;6098;49.004;8.372;2023-03-01T23:39:00;29.10;;;14.97;;
12072;SDS011;6098;49.004;8.372;2023-03-01T23:53:51;27.51;;;14.91;;
